Time;durP1;ratioP1;P1;durP2;ratioP2;P2;SDS_P1;SDS_P2;PMS_P1;PMS_P2;Temp;Humidity;BMP_temperature;BMP_pressure;BME280_temperature;BME280_humidity;BME280_pressure;Samples;Min_cycle;Max_cycle;Signal;HPM_P1;HPM_P2
2023/01/01 00:00:11;;;;;;;24.00;18.73;;;13.60;99.90;;;;;;4943276;28;20042;-78
2023/01/01 00:02:36;;;;;;;26.70;19.95;;;13.50;99.90;;;;;;4990932;28;20041;-79
2023/01/01 00:05:04;;;;;;;23.83;19.05;;;13.50;99.90;;;;;;4973781;28;20614;-78
2023/01/01 00:07:33;;;;;;;26.98;20.80;;;13.40;99.90;;;;;;4960192;28;20509;-76
2023/01/01 00:12:42;;;;;;;36.08;27.85;;;13.40;99.90;;;;;;4976212;28;20101;-79
2023/01/01 00:15:08;;;;;;;33.95;30.33;;;13.30;99.90;;;;;;4990648;28;20080;-78
2023/01/01 00:17:35;;;;;;;37.45;31.73;;;13.30;99.90;;;;;;4988906;28;20207;-80
2023/01/01 00:20:00;;;;;;;36.65;31.27;;;13.20;99.90;;;;;;4942503;28;20506;-79
2023/01/01 00:22:26;;;;;;;42.00;37.50;;;13.20;99.90;;;;;;4973914;28;20038;-79
2023/01/01 00:24:52;;;;;;;43.95;39.17;;;13.20;99.90;;;;;;4957201;28;20097;-78
2023/01/01 00:27:18;;;;;;;44.45;39.63;;;13.10;99.90;;;;;;4973737;28;20492;-78
2023/01/01 00:29:44;;;;;;;47.30;42.22;;;13.10;99.90;;;;;;4989738;28;20134;-78
2023/01/01 00:32:11;;;;;;;45.67;40.35;;;13.00;99.90;;;;;;4973584;28;20141;-78
2023/01/01 00:34:37;;;;;;;52.67;47.28;;;13.00;99.90;;;;;;4974860;28;20046;-78
2023/01/01 00:37:03;;;;;;;52.10;46.45;;;13.00;99.90;;;;;;4971119;28;20057;-79
2023/01/01 00:39:28;;;;;;;52.22;46.65;;;13.00;99.90;;;;;;4971825;28;20049;-78
2023/01/01 00:41:54;;;;;;;46.17;41.33;;;12.90;99.90;;;;;;4989385;28;20042;-74
2023/01/01 00:44:20;;;;;;;45.03;40.17;;;13.00;99.90;;;;;;4973655;28;20045;-78
2023/01/01 00:46:46;;;;;;;45.97;41.20;;;13.00;99.90;;;;;;4973140;28;20050;-78
2023/01/01 00:49:14;;;;;;;41.20;37.05;;;13.00;99.90;;;;;;4970295;28;20041;-78
2023/01/01 00:51:40;;;;;;;42.65;37.15;;;13.10;99.90;;;;;;4965855;28;20153;-79
2023/01/01 00:54:06;;;;;;;41.63;34.67;;;13.10;99.90;;;;;;4963708;28;20081;-78
2023/01/01 00:56:32;;;;;;;40.42;32.72;;;13.10;99.90;;;;;;4960893;28;20650;-78
2023/01/01 00:58:58;;;;;;;36.53;32.58;;;13.20;99.90;;;;;;4987572;28;20053;-79
2023/01/01 01:01:24;;;;;;;35.95;32.13;;;13.30;99.90;;;;;;4986182;28;20455;-79
2023/01/01 01:03:49;;;;;;;35.40;31.45;;;13.30;99.90;;;;;;4982843;28;20046;-78
2023/01/01 01:06:17;;;;;;;35.15;29.35;;;13.30;99.90;;;;;;4958728;28;20042;-78
2023/01/01 01:08:45;;;;;;;36.17;32.38;;;13.40;99.90;;;;;;4989376;28;20065;-79
2023/01/01 01:11:18;;;;;;;35.85;31.95;;;13.50;99.90;;;;;;4981977;28;20046;-75
2023/01/01 01:13:47;;;;;;;35.20;30.60;;;13.50;99.90;;;;;;4971822;28;20049;-79
2023/01/01 01:16:25;;;;;;;33.90;30.30;;;13.50;99.90;;;;;;4983494;28;20050;-78
2023/01/01 01:18:53;;;;;;;35.30;30.15;;;13.50;99.90;;;;;;4968318;28;20046;-79
2023/01/01 01:21:21;;;;;;;35.55;31.67;;;13.50;99.90;;;;;;4985958;28;20042;-79
2023/01/01 01:23:47;;;;;;;36.05;31.58;;;13.60;99.90;;;;;;4982967;28;20482;-78
2023/01/01 01:26:19;;;;;;;31.92;28.63;;;13.50;99.90;;;;;;4970830;28;20050;-79
2023/01/01 01:28:45;;;;;;;33.35;29.67;;;13.60;99.90;;;;;;4970907;28;20046;-79
2023/01/01 01:31:12;;;;;;;31.73;26.70;;;13.50;99.90;;;;;;4970810;28;20456;-79
2023/01/01 01:33:38;;;;;;;36.67;33.00;;;13.50;99.90;;;;;;4986832;28;20180;-80
2023/01/01 01:36:08;;;;;;;35.72;29.80;;;13.60;99.90;;;;;;4983212;28;20108;-79
2023/01/01 01:38:34;;;;;;;35.72;31.45;;;13.60;99.90;;;;;;4963322;28;20992;-78
2023/01/01 01:40:59;;;;;;;38.38;32.95;;;13.50;99.90;;;;;;4952008;28;20400;-79
2023/01/01 01:43:49;;;;;;;36.78;32.50;;;13.50;99.90;;;;;;4949225;28;20385;-80
2023/01/01 01:46:35;;;;;;;35.58;31.83;;;13.50;99.90;;;;;;4988058;28;20574;-80
2023/01/01 01:49:42;;;;;;;35.67;31.98;;;13.40;99.90;;;;;;4983959;28;20475;-79
2023/01/01 01:52:08;;;;;;;36.08;30.70;;;13.40;99.90;;;;;;4966835;28;20099;-79
2023/01/01 01:54:37;;;;;;;37.70;32.22;;;13.40;99.90;;;;;;4950605;28;20058;-79
2023/01/01 01:57:06;;;;;;;33.95;30.13;;;13.40;99.90;;;;;;4965552;28;20424;-79
2023/01/01 01:59:37;;;;;;;35.25;31.73;;;13.40;99.90;;;;;;4982123;28;20435;-79
2023/01/01 02:02:07;;;;;;;;;;;13.40;99.90;;;;;;4963836;28;20092;-79
2023/01/01 02:04:36;;;;;;;35.42;29.95;;;13.40;99.90;;;;;;4962157;28;19929;-80
2023/01/01 02:07:02;;;;;;;34.63;28.93;;;13.30;99.90;;;;;;4970321;28;20046;-79
2023/01/01 02:09:36;;;;;;;32.53;27.48;;;13.40;99.90;;;;;;4935613;28;20038;-79
2023/01/01 02:12:01;;;;;;;32.53;27.33;;;13.40;99.90;;;;;;4982998;28;20411;-79
2023/01/01 02:14:27;;;;;;;30.83;26.60;;;13.30;99.90;;;;;;4971706;28;20048;-79
2023/01/01 02:17:05;;;;;;;32.13;25.90;;;13.30;99.90;;;;;;4987317;28;20046;-78
2023/01/01 02:19:43;;;;;;;29.20;24.30;;;13.40;99.90;;;;;;4988578;28;20050;-79
2023/01/01 02:22:46;;;;;;;30.48;23.60;;;13.40;99.90;;;;;;4986076;28;20078;-79
2023/01/01 02:25:24;;;;;;;29.65;22.00;;;13.40;99.90;;;;;;4986732;28;20073;-76
2023/01/01 02:28:05;;;;;;;22.85;17.48;;;13.50;99.90;;;;;;4987271;28;20049;-80
2023/01/01 02:30:36;;;;;;;24.10;18.42;;;13.50;99.90;;;;;;4971459;28;20049;-78
2023/01/01 02:33:13;;;;;;;26.48;17.65;;;13.50;99.90;;;;;;4969262;28;20711;-78
2023/01/01 02:35:44;;;;;;;23.65;17.95;;;13.50;99.90;;;;;;4985757;28;20065;-79
2023/01/01 02:38:23;;;;;;;20.25;16.40;;;13.50;99.90;;;;;;4970023;28;20050;-78
2023/01/01 02:40:53;;;;;;;18.05;13.98;;;13.50;99.90;;;;;;4971689;28;20393;-77
2023/01/01 02:43:19;;;;;;;24.67;16.05;;;13.50;99.90;;;;;;4984771;28;20046;-78
2023/01/01 02:45:45;;;;;;;21.25;15.13;;;13.60;99.90;;;;;;4958455;28;20054;-78
2023/01/01 02:48:50;;;;;;;20.55;14.57;;;13.60;99.90;;;;;;4973633;28;20944;-76
2023/01/01 02:51:21;;;;;;;22.05;14.18;;;13.60;99.90;;;;;;4972151;28;20038;-78
2023/01/01 02:54:14;;;;;;;23.40;14.05;;;13.60;99.90;;;;;;4972707;28;20045;-76
2023/01/01 02:57:05;;;;;;;19.15;11.45;;;13.60;99.90;;;;;;4972172;28;20416;-77
2023/01/01 03:02:52;;;;;;;20.33;11.52;;;13.60;99.90;;;;;;4990987;28;20050;-77
2023/01/01 03:05:28;;;;;;;17.67;10.18;;;13.70;99.90;;;;;;5004590;28;20054;-78
2023/01/01 03:08:06;;;;;;;18.27;10.73;;;13.70;99.90;;;;;;4989323;28;20112;-77
2023/01/01 03:10:40;;;;;;;17.20;9.35;;;13.70;99.90;;;;;;4976967;28;20124;-78
2023/01/01 03:13:37;;;;;;;17.27;8.95;;;13.70;99.90;;;;;;4975506;28;20455;-79
2023/01/01 03:16:43;;;;;;;14.52;8.10;;;13.80;99.90;;;;;;4982518;28;20072;-79
2023/01/01 03:19:19;;;;;;;13.60;7.13;;;13.80;99.90;;;;;;4962721;28;20069;-78
2023/01/01 03:22:01;;;;;;;18.52;7.47;;;13.90;99.90;;;;;;5008870;28;20049;-77
2023/01/01 03:24:47;;;;;;;16.25;6.70;;;13.90;99.90;;;;;;4996850;28;20048;-77
2023/01/01 03:27:30;;;;;;;15.50;5.40;;;13.90;99.90;;;;;;4975046;28;20046;-78
2023/01/01 03:30:00;;;;;;;12.07;5.80;;;14.00;99.90;;;;;;4977016;28;20056;-78
2023/01/01 03:35:24;;;;;;;14.70;5.30;;;14.10;99.90;;;;;;4991472;28;20504;-76
2023/01/01 03:37:52;;;;;;;9.40;5.28;;;14.10;99.90;;;;;;4974480;28;20522;-77
2023/01/01 03:40:19;;;;;;;12.50;4.35;;;14.10;99.90;;;;;;4975413;28;20125;-78
2023/01/01 03:42:51;;;;;;;12.88;4.43;;;14.20;99.90;;;;;;4973025;28;20034;-75
2023/01/01 03:45:29;;;;;;;12.90;4.20;;;14.20;99.90;;;;;;4973849;28;20049;-77
2023/01/01 03:47:56;;;;;;;12.02;4.07;;;14.10;99.90;;;;;;4978152;28;20845;-78
2023/01/01 03:50:34;;;;;;;9.07;3.97;;;14.10;99.90;;;;;;4990682;28;20846;-78
2023/01/01 03:53:12;;;;;;;9.13;3.80;;;14.10;99.90;;;;;;4990155;28;20042;-74
2023/01/01 03:55:45;;;;;;;15.05;5.15;;;14.10;99.90;;;;;;4991934;28;20050;-78
2023/01/01 03:58:16;;;;;;;12.27;4.35;;;14.20;99.90;;;;;;4968553;28;20060;-78
2023/01/01 04:01:03;;;;;;;9.13;3.75;;;14.10;99.90;;;;;;4971350;28;20060;-74
2023/01/01 04:03:31;;;;;;;11.73;4.15;;;14.10;99.90;;;;;;4974444;28;20443;-74
2023/01/01 04:05:57;;;;;;;9.32;3.95;;;14.10;99.90;;;;;;4987452;28;20047;-73
2023/01/01 04:08:23;;;;;;;10.35;3.65;;;14.10;99.90;;;;;;4972924;28;20045;-74
2023/01/01 04:12:00;;;;;;;10.57;3.88;;;14.20;99.90;;;;;;4977877;28;20046;-74
2023/01/01 04:13:51;;;;;;;9.48;4.00;;;14.20;99.90;;;;;;4990507;28;20064;-74
2023/01/01 04:16:17;;;;;;;12.85;4.07;;;14.20;99.90;;;;;;4959254;28;20417;-74
2023/01/01 04:18:42;;;;;;;10.43;3.80;;;14.20;99.90;;;;;;4988395;28;20045;-74
2023/01/01 04:21:08;;;;;;;11.65;3.85;;;14.20;99.90;;;;;;4972781;28;20049;-74
2023/01/01 04:23:40;;;;;;;8.20;3.13;;;14.20;99.90;;;;;;4957667;28;20099;-74
2023/01/01 04:26:14;;;;;;;12.02;3.38;;;14.20;99.90;;;;;;4936309;28;20136;-75
2023/01/01 04:28:45;;;;;;;9.13;3.28;;;14.20;99.90;;;;;;4989043;28;20084;-74
2023/01/01 04:31:11;;;;;;;9.65;3.53;;;14.20;99.90;;;;;;4987651;28;20046;-74
2023/01/01 04:33:37;;;;;;;11.20;3.53;;;14.20;99.90;;;;;;4954802;28;20049;-74
2023/01/01 04:36:08;;;;;;;13.82;3.75;;;14.10;99.90;;;;;;4971640;28;20126;-74
2023/01/01 04:38:37;;;;;;;11.65;3.65;;;13.90;99.90;;;;;;4973072;28;20136;-74
2023/01/01 04:41:04;;;;;;;8.07;3.55;;;13.70;99.90;;;;;;4973148;28;20045;-77
2023/01/01 04:43:32;;;;;;;11.45;3.58;;;13.60;99.90;;;;;;4972487;28;20056;-78
2023/01/01 04:46:03;;;;;;;10.55;3.28;;;13.50;99.90;;;;;;4989480;28;20562;-76
2023/01/01 04:48:29;;;;;;;;;;;13.50;99.90;;;;;;4972923;28;20286;-78
2023/01/01 04:50:57;;;;;;;10.50;3.88;;;13.40;99.90;;;;;;4968751;28;19972;-78
2023/01/01 04:53:24;;;;;;;10.07;3.50;;;13.40;99.90;;;;;;4969451;28;20058;-77
2023/01/01 04:55:50;;;;;;;10.30;3.42;;;13.40;99.90;;;;;;4971176;28;20721;-78
2023/01/01 04:58:16;;;;;;;9.90;3.08;;;13.40;99.90;;;;;;4973919;28;20046;-77
2023/01/01 05:00:45;;;;;;;8.88;3.17;;;13.40;99.90;;;;;;4966840;28;20061;-78
2023/01/01 05:03:11;;;;;;;10.93;3.17;;;13.40;99.90;;;;;;4980978;28;20542;-77
2023/01/01 05:05:37;;;;;;;9.30;3.05;;;13.30;99.90;;;;;;4974733;28;20085;-78
2023/01/01 05:08:03;;;;;;;11.48;3.58;;;13.30;99.90;;;;;;4973280;28;20057;-77
2023/01/01 05:10:29;;;;;;;11.32;3.40;;;13.30;99.90;;;;;;4953750;28;20046;-77
2023/01/01 05:12:54;;;;;;;8.52;2.35;;;13.40;99.90;;;;;;4989833;28;20046;-78
2023/01/01 05:15:20;;;;;;;6.85;2.42;;;13.40;99.90;;;;;;4973511;28;20042;-77
2023/01/01 05:17:46;;;;;;;8.68;3.00;;;13.50;99.90;;;;;;4956060;28;20045;-76
2023/01/01 05:20:12;;;;;;;11.38;2.70;;;13.50;99.90;;;;;;4955740;28;20112;-78
2023/01/01 05:22:37;;;;;;;8.57;2.50;;;13.50;99.90;;;;;;4983746;28;20081;-78
2023/01/01 05:25:04;;;;;;;9.32;2.50;;;13.50;99.90;;;;;;4955466;28;20051;-78
2023/01/01 05:27:29;;;;;;;7.95;3.22;;;13.50;99.90;;;;;;4972815;28;20050;-78
2023/01/01 05:29:55;;;;;;;8.27;2.90;;;13.50;99.90;;;;;;4961944;28;20066;-78
2023/01/01 05:32:21;;;;;;;9.45;2.88;;;13.50;99.90;;;;;;4963858;28;20086;-78
2023/01/01 05:34:47;;;;;;;9.82;2.63;;;13.50;99.90;;;;;;4988597;28;20086;-78
2023/01/01 05:37:13;;;;;;;7.22;2.40;;;13.50;99.90;;;;;;4967992;28;20524;-78
2023/01/01 05:39:38;;;;;;;8.93;2.58;;;13.50;99.90;;;;;;4971617;28;20050;-78
2023/01/01 05:42:07;;;;;;;8.55;2.20;;;13.50;99.90;;;;;;4955467;28;20073;-78
2023/01/01 05:44:33;;;;;;;7.00;2.30;;;13.50;99.90;;;;;;4955839;28;20041;-78
2023/01/01 05:46:59;;;;;;;8.55;2.72;;;13.50;99.90;;;;;;4954826;28;20416;-79
2023/01/01 05:49:25;;;;;;;7.00;1.90;;;13.40;99.90;;;;;;4971635;28;20044;-77
2023/01/01 05:51:50;;;;;;;7.38;1.70;;;13.40;99.90;;;;;;4987552;28;20052;-77
2023/01/01 05:54:16;;;;;;;5.68;1.60;;;13.40;99.90;;;;;;4987838;28;20144;-76
2023/01/01 05:56:42;;;;;;;8.82;1.75;;;13.40;99.90;;;;;;4988429;28;20072;-73
2023/01/01 05:59:09;;;;;;;6.30;1.70;;;13.40;99.90;;;;;;4985072;28;20049;-76
2023/01/01 06:01:35;;;;;;;4.78;1.15;;;13.30;99.90;;;;;;4962204;28;20043;-74
2023/01/01 06:04:01;;;;;;;5.70;1.20;;;13.30;99.90;;;;;;4985941;28;20061;-76
2023/01/01 06:06:31;;;;;;;7.55;1.80;;;13.30;99.90;;;;;;4969216;28;20052;-76
2023/01/01 06:08:59;;;;;;;5.25;1.55;;;13.20;99.90;;;;;;4984626;28;20457;-73
2023/01/01 06:11:26;;;;;;;5.22;1.20;;;13.20;99.90;;;;;;4984315;28;20095;-72
2023/01/01 06:13:56;;;;;;;7.78;1.65;;;13.20;99.90;;;;;;4969619;28;20054;-73
2023/01/01 06:16:23;;;;;;;5.80;1.20;;;13.20;99.90;;;;;;4967117;28;21348;-74
2023/01/01 06:18:49;;;;;;;8.15;1.95;;;13.10;99.90;;;;;;4988546;28;20058;-77
2023/01/01 06:21:17;;;;;;;6.75;1.40;;;13.10;99.90;;;;;;4984575;28;20072;-76
2023/01/01 06:23:43;;;;;;;5.93;1.25;;;13.10;99.90;;;;;;4985993;28;20551;-75
2023/01/01 06:26:24;;;;;;;6.00;1.55;;;13.20;99.90;;;;;;4952266;28;20122;-77
2023/01/01 06:28:50;;;;;;;6.03;1.45;;;13.10;99.90;;;;;;4970908;28;20054;-76
2023/01/01 06:31:18;;;;;;;5.85;1.40;;;13.10;99.90;;;;;;4984000;28;20149;-78
2023/01/01 06:33:48;;;;;;;5.43;2.15;;;13.10;99.90;;;;;;4970244;28;20047;-77
2023/01/01 06:36:16;;;;;;;8.25;1.92;;;13.00;99.90;;;;;;4977724;28;20396;-73
2023/01/01 06:38:44;;;;;;;8.23;1.77;;;13.00;99.90;;;;;;4979140;28;20675;-75
2023/01/01 06:41:11;;;;;;;8.85;1.58;;;13.00;99.90;;;;;;4987286;28;20609;-78
2023/01/01 06:43:38;;;;;;;8.10;2.13;;;13.00;99.90;;;;;;4969335;28;20042;-74
2023/01/01 06:46:21;;;;;;;6.57;1.83;;;13.00;99.90;;;;;;4970255;28;20053;-77
2023/01/01 06:48:49;;;;;;;8.23;2.05;;;13.00;99.90;;;;;;4966477;28;20050;-77
2023/01/01 06:51:18;;;;;;;7.25;1.80;;;12.90;99.90;;;;;;4985184;28;20118;-76
2023/01/01 06:53:45;;;;;;;9.35;1.55;;;12.90;99.90;;;;;;4986131;28;20051;-78
2023/01/01 06:56:11;;;;;;;9.07;1.80;;;12.80;99.90;;;;;;4985889;28;20073;-79
2023/01/01 06:58:37;;;;;;;7.15;1.98;;;12.70;99.90;;;;;;4952897;28;20140;-78
2023/01/01 07:01:07;;;;;;;8.65;2.00;;;12.70;99.90;;;;;;4969705;28;20101;-78
2023/01/01 07:03:33;;;;;;;6.93;1.83;;;12.70;99.90;;;;;;4968681;28;20042;-79
2023/01/01 07:05:59;;;;;;;6.57;1.73;;;12.60;99.90;;;;;;4969338;28;20050;-78
2023/01/01 07:08:25;;;;;;;10.60;2.15;;;12.60;99.90;;;;;;4965253;28;20172;-78
2023/01/01 07:10:50;;;;;;;9.02;2.50;;;12.60;99.90;;;;;;4969973;28;20133;-79
2023/01/01 07:13:16;;;;;;;8.18;2.08;;;12.60;99.90;;;;;;4968186;28;20489;-79
2023/01/01 07:15:43;;;;;;;9.73;2.28;;;12.50;99.90;;;;;;4976424;28;20306;-79
2023/01/01 07:18:09;;;;;;;8.25;2.13;;;12.50;99.90;;;;;;4984334;28;20062;-77
2023/01/01 07:20:38;;;;;;;8.98;2.50;;;12.50;99.90;;;;;;4968041;28;20097;-78
2023/01/01 07:23:03;;;;;;;10.73;2.97;;;12.60;99.90;;;;;;4983657;28;20042;-79
2023/01/01 07:25:29;;;;;;;8.35;2.20;;;12.50;99.90;;;;;;4969206;28;20046;-79
2023/01/01 07:27:57;;;;;;;10.10;2.45;;;12.50;99.90;;;;;;4954328;28;20105;-79
2023/01/01 07:30:23;;;;;;;8.55;2.30;;;12.50;99.90;;;;;;4973276;28;20077;-79
2023/01/01 07:32:54;;;;;;;10.48;2.55;;;12.50;99.90;;;;;;4969538;28;20042;-77
2023/01/01 07:35:20;;;;;;;8.80;2.17;;;12.50;99.90;;;;;;4973640;28;20448;-76
2023/01/01 07:37:46;;;;;;;9.55;2.10;;;12.50;99.90;;;;;;4971907;28;20049;-78
2023/01/01 07:40:12;;;;;;;12.18;2.75;;;12.50;99.90;;;;;;4956099;28;20050;-77
2023/01/01 07:42:37;;;;;;;7.55;2.20;;;12.50;99.90;;;;;;4988392;28;20400;-78
2023/01/01 07:45:06;;;;;;;11.52;2.70;;;12.50;99.90;;;;;;4986921;28;20046;-77
2023/01/01 07:47:32;;;;;;;8.63;2.17;;;12.50;99.90;;;;;;4988765;28;20057;-77
2023/01/01 07:49:58;;;;;;;9.82;2.17;;;12.50;99.90;;;;;;4957703;28;20396;-77
2023/01/01 07:52:24;;;;;;;8.25;1.95;;;12.40;99.90;;;;;;4955005;28;20050;-78
2023/01/01 07:54:49;;;;;;;11.55;2.60;;;12.40;99.90;;;;;;4951932;28;20105;-77
2023/01/01 07:57:15;;;;;;;12.13;2.58;;;12.40;99.90;;;;;;5000328;28;20070;-77
2023/01/01 07:59:41;;;;;;;9.00;2.20;;;12.30;99.90;;;;;;4985798;28;20042;-78
2023/01/01 08:02:11;;;;;;;10.43;2.33;;;12.30;99.90;;;;;;4982780;28;20046;-77
2023/01/01 08:04:37;;;;;;;10.93;2.35;;;12.30;99.90;;;;;;4973577;28;20092;-78
2023/01/01 08:07:03;;;;;;;9.98;2.75;;;12.30;99.90;;;;;;4971588;28;20096;-77
2023/01/01 08:09:29;;;;;;;11.18;2.53;;;12.30;99.90;;;;;;4991454;28;20062;-77
2023/01/01 08:11:57;;;;;;;11.27;2.60;;;12.20;99.90;;;;;;4971683;28;20287;-78
2023/01/01 08:14:24;;;;;;;13.05;2.75;;;12.30;99.90;;;;;;4987513;28;20505;-78
2023/01/01 08:16:50;;;;;;;11.38;2.95;;;12.20;99.90;;;;;;4955998;28;20050;-75
2023/01/01 08:19:17;;;;;;;9.07;2.05;;;12.20;99.90;;;;;;4973215;28;20046;-76
2023/01/01 08:21:43;;;;;;;10.30;2.33;;;12.20;99.90;;;;;;4961137;28;20158;-77
2023/01/01 08:24:08;;;;;;;12.57;2.60;;;12.20;99.90;;;;;;4968986;28;20493;-77
2023/01/01 08:26:36;;;;;;;8.60;2.10;;;12.20;99.90;;;;;;4971750;28;20707;-78
2023/01/01 08:29:07;;;;;;;11.40;2.50;;;12.20;99.90;;;;;;4968366;28;20519;-77
2023/01/01 08:31:33;;;;;;;10.88;2.30;;;12.20;99.90;;;;;;4965241;28;20053;-77
2023/01/01 08:33:59;;;;;;;11.48;2.65;;;12.10;99.90;;;;;;4949003;28;20046;-78
2023/01/01 08:36:24;;;;;;;10.75;2.30;;;12.10;99.90;;;;;;4955556;28;20148;-77
2023/01/01 08:38:50;;;;;;;9.13;2.45;;;12.10;99.90;;;;;;4951960;28;20042;-76
2023/01/01 08:41:16;;;;;;;12.00;2.92;;;12.10;99.90;;;;;;4968657;28;20571;-76
2023/01/01 08:43:42;;;;;;;10.23;1.85;;;12.10;99.90;;;;;;4984636;28;20081;-77
2023/01/01 08:46:08;;;;;;;10.00;2.38;;;12.10;99.90;;;;;;4956581;28;20133;-77
2023/01/01 08:48:37;;;;;;;14.23;3.17;;;12.10;99.90;;;;;;4953996;28;20038;-77
2023/01/01 08:51:03;;;;;;;11.70;2.13;;;12.10;99.90;;;;;;4969509;28;20131;-78
2023/01/01 08:53:30;;;;;;;13.95;2.97;;;12.10;99.90;;;;;;4969833;28;20046;-78
2023/01/01 08:56:05;;;;;;;11.43;2.85;;;12.10;99.90;;;;;;4971464;28;20076;-78
2023/01/01 08:58:34;;;;;;;11.50;2.55;;;12.10;99.90;;;;;;4986239;28;20076;-78
2023/01/01 09:01:03;;;;;;;10.95;2.63;;;12.00;99.90;;;;;;4956757;28;20054;-78
2023/01/01 09:03:29;;;;;;;10.45;2.15;;;12.00;99.90;;;;;;4986818;28;20045;-77
2023/01/01 09:05:55;;;;;;;11.30;2.72;;;12.00;99.90;;;;;;4957630;28;20050;-77
2023/01/01 09:08:21;;;;;;;9.95;2.22;;;12.00;99.90;;;;;;4952580;28;20045;-78
2023/01/01 09:10:48;;;;;;;12.15;2.65;;;12.00;99.90;;;;;;4953429;28;20042;-77
2023/01/01 09:13:16;;;;;;;9.88;1.98;;;12.00;99.90;;;;;;4985590;28;20876;-78
2023/01/01 09:15:43;;;;;;;10.32;2.22;;;12.00;99.90;;;;;;4982832;28;20239;-76
2023/01/01 09:18:09;;;;;;;10.65;1.98;;;12.00;99.90;;;;;;4950465;28;20140;-78
2023/01/01 09:20:36;;;;;;;13.50;2.92;;;12.00;99.90;;;;;;4950384;28;20057;-78
2023/01/01 09:23:03;;;;;;;12.98;3.78;;;12.00;99.90;;;;;;4982319;28;20049;-78
2023/01/01 09:25:28;;;;;;;16.10;6.40;;;12.00;99.90;;;;;;4968934;28;20061;-78
2023/01/01 09:28:03;;;;;;;16.58;4.75;;;12.00;99.90;;;;;;4964594;28;20046;-78
2023/01/01 09:30:28;;;;;;;13.68;5.28;;;12.10;99.90;;;;;;4983434;28;20050;-77
2023/01/01 09:32:54;;;;;;;18.88;5.72;;;12.00;99.90;;;;;;4950651;28;20042;-77
2023/01/01 09:35:21;;;;;;;12.18;3.47;;;12.00;99.90;;;;;;4983239;28;20092;-76
2023/01/01 09:37:47;;;;;;;9.23;2.72;;;12.00;99.90;;;;;;4967738;28;20053;-77
2023/01/01 09:40:46;;;;;;;10.77;2.97;;;12.00;99.90;;;;;;4969888;28;20448;-77
2023/01/01 09:43:53;;;;;;;12.05;2.85;;;12.00;99.90;;;;;;4984554;28;20049;-73
2023/01/01 09:46:22;;;;;;;14.75;3.40;;;12.00;99.90;;;;;;4983807;28;20088;-74
2023/01/01 09:49:02;;;;;;;9.95;2.17;;;11.90;99.90;;;;;;4998178;28;20077;-77
2023/01/01 09:51:36;;;;;;;18.60;2.92;;;12.00;99.90;;;;;;4982350;28;20046;-78
2023/01/01 09:54:20;;;;;;;14.43;2.88;;;11.90;99.90;;;;;;4968748;28;20404;-79
2023/01/01 09:56:50;;;;;;;10.63;2.45;;;12.00;99.90;;;;;;4969155;28;20057;-77
2023/01/01 09:59:16;;;;;;;10.48;2.53;;;12.00;99.90;;;;;;4987676;28;20358;-77
2023/01/01 10:01:52;;;;;;;11.10;2.83;;;12.00;99.90;;;;;;4985547;28;20396;-78
2023/01/01 10:05:14;;;;;;;16.55;3.17;;;12.00;99.90;;;;;;4971527;28;20059;-76
2023/01/01 10:07:46;;;;;;;10.90;2.47;;;12.00;99.90;;;;;;4889122;29;20063;-77
2023/01/01 10:10:36;;;;;;;10.75;2.42;;;12.00;99.90;;;;;;4873651;29;20111;-77
2023/01/01 10:13:16;;;;;;;13.77;3.15;;;12.00;99.90;;;;;;4964723;28;20095;-78
2023/01/01 10:16:10;;;;;;;10.43;2.72;;;12.00;99.90;;;;;;4966608;28;20053;-78
2023/01/01 10:18:38;;;;;;;10.50;2.30;;;11.90;99.90;;;;;;4971154;28;20062;-79
2023/01/01 10:21:14;;;;;;;13.18;2.58;;;11.90;99.90;;;;;;4970571;28;20045;-78
2023/01/01 10:23:51;;;;;;;10.60;2.60;;;11.90;99.90;;;;;;4972265;28;20071;-77
2023/01/01 10:26:20;;;;;;;11.30;2.30;;;11.90;99.90;;;;;;4986180;28;20058;-77
2023/01/01 10:29:01;;;;;;;10.43;2.47;;;11.80;99.90;;;;;;4969199;28;20450;-77
2023/01/01 10:31:38;;;;;;;11.57;2.70;;;11.80;99.90;;;;;;4970477;28;20148;-76
2023/01/01 10:34:27;;;;;;;7.63;1.80;;;11.80;99.90;;;;;;4971569;28;21182;-77
2023/01/01 10:36:57;;;;;;;13.27;2.50;;;11.90;99.90;;;;;;4969820;28;20046;-80
2023/01/01 10:39:23;;;;;;;8.98;2.10;;;11.90;99.90;;;;;;4969829;28;20050;-78
2023/01/01 10:41:49;;;;;;;11.10;2.42;;;11.90;99.90;;;;;;4984653;28;20503;-77
2023/01/01 10:44:18;;;;;;;9.02;2.40;;;12.00;99.90;;;;;;4967349;28;20554;-77
2023/01/01 10:46:50;;;;;;;11.77;2.38;;;12.00;99.90;;;;;;4985541;28;20038;-77
2023/01/01 10:49:16;;;;;;;9.52;2.15;;;12.00;99.90;;;;;;4986694;28;20041;-78
2023/01/01 10:51:50;;;;;;;11.85;2.38;;;12.00;99.90;;;;;;4972362;28;20162;-77
2023/01/01 10:54:40;;;;;;;13.63;2.40;;;12.00;99.90;;;;;;4988202;28;20046;-77
2023/01/01 10:57:39;;;;;;;9.32;2.20;;;12.00;99.90;;;;;;4964324;28;20431;-77
2023/01/01 11:00:27;;;;;;;10.68;1.98;;;12.00;99.90;;;;;;4966576;28;20135;-77
2023/01/01 11:03:14;;;;;;;10.75;2.50;;;12.10;99.90;;;;;;4983002;28;20136;-77
2023/01/01 11:05:58;;;;;;;13.73;2.72;;;12.10;99.90;;;;;;4973909;28;20336;-79
2023/01/01 11:08:28;;;;;;;11.90;2.30;;;12.10;99.90;;;;;;4985229;28;20451;-78
2023/01/01 11:11:00;;;;;;;13.90;3.00;;;12.10;99.90;;;;;;4964734;28;20050;-78
2023/01/01 11:13:27;;;;;;;10.13;1.83;;;12.20;99.90;;;;;;4989039;28;20050;-77
2023/01/01 11:15:52;;;;;;;13.82;2.70;;;12.20;99.90;;;;;;4987265;28;20182;-78
2023/01/01 11:18:34;;;;;;;14.15;2.90;;;12.20;99.90;;;;;;4975836;28;20038;-76
2023/01/01 11:21:03;;;;;;;10.98;2.03;;;12.20;99.90;;;;;;4989172;28;20125;-77
2023/01/01 11:23:32;;;;;;;12.90;2.20;;;12.10;99.90;;;;;;4973595;28;20034;-78
2023/01/01 11:26:02;;;;;;;12.43;3.10;;;12.10;99.90;;;;;;4972641;28;20060;-78
2023/01/01 11:28:30;;;;;;;13.20;2.70;;;12.10;99.90;;;;;;4971632;28;20045;-77
2023/01/01 11:31:14;;;;;;;15.35;2.97;;;12.10;99.90;;;;;;4973499;28;20073;-77
2023/01/01 11:33:43;;;;;;;12.95;2.95;;;12.10;99.90;;;;;;4972592;28;20240;-77
2023/01/01 11:36:09;;;;;;;12.43;2.40;;;12.10;99.90;;;;;;4993187;28;20504;-77
2023/01/01 11:38:35;;;;;;;8.88;2.45;;;12.10;99.90;;;;;;4988573;28;20054;-76
2023/01/01 11:41:06;;;;;;;11.55;3.15;;;12.20;99.90;;;;;;4954208;28;20049;-76
2023/01/01 11:43:44;;;;;;;12.00;2.25;;;12.20;99.90;;;;;;4965109;28;20578;-76
2023/01/01 11:46:21;;;;;;;15.55;2.88;;;12.30;99.90;;;;;;4986934;28;20160;-75
2023/01/01 11:48:47;;;;;;;13.38;2.40;;;12.30;99.90;;;;;;4970437;28;20038;-73
2023/01/01 11:51:31;;;;;;;12.25;2.30;;;12.30;99.90;;;;;;4970479;28;20519;-74
2023/01/01 11:54:31;;;;;;;11.30;2.17;;;12.30;99.90;;;;;;4951136;28;20053;-73
2023/01/01 11:57:15;;;;;;;11.95;2.38;;;12.30;99.90;;;;;;4970333;28;20058;-73
2023/01/01 12:00:00;;;;;;;8.80;2.15;;;12.30;99.90;;;;;;4970954;28;20057;-74
2023/01/01 12:02:53;;;;;;;12.23;2.30;;;12.40;99.90;;;;;;4969613;28;20045;-73
2023/01/01 12:05:55;;;;;;;14.02;2.22;;;12.40;99.90;;;;;;4962492;28;20049;-74
2023/01/01 12:08:37;;;;;;;11.55;2.45;;;12.40;99.90;;;;;;4964075;28;20914;-77
2023/01/01 12:11:30;;;;;;;10.82;2.78;;;12.50;99.90;;;;;;4984815;28;20050;-76
2023/01/01 12:14:03;;;;;;;15.27;3.03;;;12.60;99.90;;;;;;4965022;28;20120;-76
2023/01/01 12:16:51;;;;;;;12.55;2.80;;;12.60;99.90;;;;;;4971954;28;20123;-76
2023/01/01 12:19:32;;;;;;;14.27;2.53;;;12.60;99.90;;;;;;4987328;28;20139;-76
2023/01/01 12:21:59;;;;;;;12.13;2.85;;;12.60;99.90;;;;;;4987739;28;20056;-78
2023/01/01 12:24:33;;;;;;;13.25;2.70;;;12.60;99.90;;;;;;4955834;28;20042;-76
2023/01/01 12:27:08;;;;;;;14.93;3.10;;;12.50;99.90;;;;;;4987403;28;20825;-77
2023/01/01 12:29:51;;;;;;;13.07;2.53;;;12.50;99.90;;;;;;4989505;28;20104;-77
2023/01/01 12:32:42;;;;;;;11.40;2.50;;;12.50;99.90;;;;;;4967866;28;20427;-76
2023/01/01 12:35:23;;;;;;;10.43;2.40;;;12.50;99.90;;;;;;4981804;28;20357;-74
2023/01/01 12:38:35;;;;;;;11.05;2.47;;;12.50;99.90;;;;;;4987107;28;20052;-76
2023/01/01 12:41:27;;;;;;;13.93;2.95;;;12.50;99.90;;;;;;4989542;28;20507;-76
2023/01/01 12:44:15;;;;;;;13.90;2.80;;;12.50;99.90;;;;;;4969722;28;20117;-77
2023/01/01 12:47:15;;;;;;;12.45;2.83;;;12.40;99.90;;;;;;4985625;28;20045;-76
2023/01/01 12:49:53;;;;;;;13.77;2.50;;;12.40;99.90;;;;;;4970708;28;20050;-77
2023/01/01 12:52:58;;;;;;;14.15;3.10;;;12.40;99.90;;;;;;4966982;28;20046;-77
2023/01/01 12:55:33;;;;;;;13.07;3.13;;;12.40;99.90;;;;;;4986192;28;20388;-77
2023/01/01 12:58:08;;;;;;;10.80;2.63;;;12.40;99.90;;;;;;4986946;28;20046;-76
2023/01/01 13:00:37;;;;;;;10.85;2.75;;;12.40;99.90;;;;;;4965264;28;20064;-74
2023/01/01 13:03:22;;;;;;;11.90;2.40;;;12.30;99.90;;;;;;4950826;28;20107;-73
2023/01/01 13:05:52;;;;;;;11.48;2.72;;;12.40;99.90;;;;;;4969998;28;20520;-73
2023/01/01 13:08:18;;;;;;;10.68;2.60;;;12.30;99.90;;;;;;4981859;28;20064;-77
2023/01/01 13:10:47;;;;;;;12.80;2.53;;;12.30;99.90;;;;;;4966879;28;20185;-76